sensor_id;sensor_type;location;lat;lon;timestamp;P1;durP1;ratioP1;P2;durP2;ratioP2
20826;SDS011;10574;52.508;13.236;2023-05-16T00:00:47;1.77;;;1.27;;
20826;SDS011;10574;52.508;13.236;2023-05-16T00:03:16;0.80;;;0.80;;
20826;SDS011;10574;52.508;13.236;2023-05-16T00:05:44;1.83;;;1.30;;
20826;SDS011;10574;52.508;13.236;2023-05-16T00:08:12;4.47;;;1.50;;
20826;SDS011;10574;52.508;13.236;2023-05-16T00:10:40;6.27;;;1.57;;
20826;SDS011;10574;52.508;13.236;2023-05-16T00:13:08;4.70;;;2.77;;
20826;SDS011;10574;52.508;13.236;2023-05-16T00:15:36;1.47;;;1.30;;
20826;SDS011;10574;52.508;13.236;2023-05-16T00:18:04;2.20;;;1.57;;
20826;SDS011;10574;52.508;13.236;2023-05-16T00:20:32;1.30;;;1.10;;
20826;SDS011;10574;52.508;13.236;2023-05-16T00:23:00;4.47;;;1.77;;
20826;SDS011;10574;52.508;13.236;2023-05-16T00:25:28;1.23;;;1.13;;
20826;SDS011;10574;52.508;13.236;2023-05-16T00:27:57;1.40;;;1.03;;
20826;SDS011;10574;52.508;13.236;2023-05-16T00:30:25;2.37;;;1.70;;
20826;SDS011;10574;52.508;13.236;2023-05-16T00:32:53;3.87;;;1.60;;
20826;SDS011;10574;52.508;13.236;2023-05-16T00:35:21;1.90;;;1.53;;
20826;SDS011;10574;52.508;13.236;2023-05-16T00:37:49;1.20;;;1.10;;
20826;SDS011;10574;52.508;13.236;2023-05-16T00:40:17;13.93;;;2.00;;
20826;SDS011;10574;52.508;13.236;2023-05-16T00:42:46;7.53;;;3.17;;
20826;SDS011;10574;52.508;13.236;2023-05-16T00:45:13;4.97;;;2.60;;
20826;SDS011;10574;52.508;13.236;2023-05-16T00:47:41;1.40;;;1.23;;
20826;SDS011;10574;52.508;13.236;2023-05-16T00:50:09;5.57;;;2.40;;
20826;SDS011;10574;52.508;13.236;2023-05-16T00:52:38;1.53;;;1.43;;
20826;SDS011;10574;52.508;13.236;2023-05-16T00:55:06;2.93;;;2.07;;
20826;SDS011;10574;52.508;13.236;2023-05-16T00:57:36;5.10;;;2.13;;
20826;SDS011;10574;52.508;13.236;2023-05-16T01:00:04;3.10;;;1.97;;
20826;SDS011;10574;52.508;13.236;2023-05-16T01:02:37;8.23;;;2.47;;
20826;SDS011;10574;52.508;13.236;2023-05-16T01:05:05;2.57;;;2.37;;
20826;SDS011;10574;52.508;13.236;2023-05-16T01:07:34;7.53;;;3.63;;
20826;SDS011;10574;52.508;13.236;2023-05-16T01:10:02;2.20;;;1.77;;
20826;SDS011;10574;52.508;13.236;2023-05-16T01:12:44;2.60;;;1.97;;
20826;SDS011;10574;52.508;13.236;2023-05-16T01:15:23;2.13;;;1.87;;
20826;SDS011;10574;52.508;13.236;2023-05-16T01:17:56;4.20;;;1.97;;
20826;SDS011;10574;52.508;13.236;2023-05-16T01:28:50;1.70;;;1.53;;
20826;SDS011;10574;52.508;13.236;2023-05-16T01:31:19;4.27;;;1.90;;
20826;SDS011;10574;52.508;13.236;2023-05-16T01:33:48;5.80;;;2.00;;
20826;SDS011;10574;52.508;13.236;2023-05-16T01:36:23;9.27;;;1.93;;
20826;SDS011;10574;52.508;13.236;2023-05-16T01:42:04;2.27;;;1.57;;
20826;SDS011;10574;52.508;13.236;2023-05-16T01:44:41;4.83;;;2.87;;
20826;SDS011;10574;52.508;13.236;2023-05-16T01:47:12;2.33;;;2.13;;
20826;SDS011;10574;52.508;13.236;2023-05-16T01:55:22;2.13;;;1.93;;
20826;SDS011;10574;52.508;13.236;2023-05-16T01:58:03;1.40;;;1.23;;
20826;SDS011;10574;52.508;13.236;2023-05-16T02:00:32;6.17;;;2.90;;
20826;SDS011;10574;52.508;13.236;2023-05-16T02:03:00;2.47;;;1.60;;
20826;SDS011;10574;52.508;13.236;2023-05-16T02:05:28;4.00;;;2.03;;
20826;SDS011;10574;52.508;13.236;2023-05-16T02:07:57;2.60;;;1.73;;
20826;SDS011;10574;52.508;13.236;2023-05-16T02:10:25;2.33;;;1.93;;
20826;SDS011;10574;52.508;13.236;2023-05-16T02:12:53;17.70;;;3.97;;
20826;SDS011;10574;52.508;13.236;2023-05-16T02:15:21;2.87;;;2.10;;
20826;SDS011;10574;52.508;13.236;2023-05-16T02:17:49;4.63;;;2.20;;
20826;SDS011;10574;52.508;13.236;2023-05-16T02:20:17;3.60;;;2.80;;
20826;SDS011;10574;52.508;13.236;2023-05-16T02:22:44;3.17;;;2.30;;
20826;SDS011;10574;52.508;13.236;2023-05-16T02:27:44;4.77;;;2.27;;
20826;SDS011;10574;52.508;13.236;2023-05-16T02:30:12;2.47;;;1.70;;
20826;SDS011;10574;52.508;13.236;2023-05-16T02:32:40;1.93;;;1.63;;
20826;SDS011;10574;52.508;13.236;2023-05-16T02:35:10;2.60;;;2.33;;
20826;SDS011;10574;52.508;13.236;2023-05-16T02:37:39;5.97;;;3.40;;
20826;SDS011;10574;52.508;13.236;2023-05-16T02:40:08;3.90;;;2.13;;
20826;SDS011;10574;52.508;13.236;2023-05-16T02:42:37;11.93;;;3.47;;
20826;SDS011;10574;52.508;13.236;2023-05-16T02:45:05;2.97;;;1.97;;
20826;SDS011;10574;52.508;13.236;2023-05-16T02:47:33;1.80;;;0.90;;
20826;SDS011;10574;52.508;13.236;2023-05-16T02:50:02;4.40;;;2.83;;
20826;SDS011;10574;52.508;13.236;2023-05-16T02:52:30;2.90;;;2.23;;
20826;SDS011;10574;52.508;13.236;2023-05-16T02:54:58;3.33;;;2.07;;
20826;SDS011;10574;52.508;13.236;2023-05-16T02:57:27;5.23;;;3.50;;
20826;SDS011;10574;52.508;13.236;2023-05-16T02:59:55;5.47;;;3.03;;
20826;SDS011;10574;52.508;13.236;2023-05-16T03:02:23;2.73;;;1.63;;
20826;SDS011;10574;52.508;13.236;2023-05-16T03:04:52;5.37;;;1.83;;
20826;SDS011;10574;52.508;13.236;2023-05-16T03:07:20;4.00;;;3.10;;
20826;SDS011;10574;52.508;13.236;2023-05-16T03:09:48;4.37;;;2.73;;
20826;SDS011;10574;52.508;13.236;2023-05-16T03:12:16;2.87;;;1.93;;
20826;SDS011;10574;52.508;13.236;2023-05-16T03:14:43;1.40;;;1.30;;
20826;SDS011;10574;52.508;13.236;2023-05-16T03:17:11;3.10;;;2.00;;
20826;SDS011;10574;52.508;13.236;2023-05-16T03:19:39;2.10;;;1.20;;
20826;SDS011;10574;52.508;13.236;2023-05-16T03:22:07;2.60;;;1.90;;
20826;SDS011;10574;52.508;13.236;2023-05-16T03:24:34;2.53;;;2.30;;
20826;SDS011;10574;52.508;13.236;2023-05-16T03:27:02;2.67;;;2.37;;
20826;SDS011;10574;52.508;13.236;2023-05-16T03:29:30;4.77;;;3.73;;
20826;SDS011;10574;52.508;13.236;2023-05-16T03:31:58;3.27;;;2.13;;
20826;SDS011;10574;52.508;13.236;2023-05-16T03:34:26;5.77;;;2.93;;
20826;SDS011;10574;52.508;13.236;2023-05-16T03:36:54;3.70;;;2.63;;
20826;SDS011;10574;52.508;13.236;2023-05-16T03:39:22;2.30;;;2.00;;
20826;SDS011;10574;52.508;13.236;2023-05-16T03:41:56;11.23;;;2.60;;
20826;SDS011;10574;52.508;13.236;2023-05-16T03:44:23;8.93;;;3.73;;
20826;SDS011;10574;52.508;13.236;2023-05-16T03:46:51;4.53;;;2.87;;
20826;SDS011;10574;52.508;13.236;2023-05-16T03:49:22;6.10;;;2.17;;
20826;SDS011;10574;52.508;13.236;2023-05-16T03:51:53;3.37;;;2.50;;
20826;SDS011;10574;52.508;13.236;2023-05-16T03:54:21;5.43;;;2.73;;
20826;SDS011;10574;52.508;13.236;2023-05-16T03:56:49;2.13;;;2.00;;
20826;SDS011;10574;52.508;13.236;2023-05-16T03:59:17;3.27;;;2.87;;
20826;SDS011;10574;52.508;13.236;2023-05-16T04:01:45;3.63;;;2.67;;
20826;SDS011;10574;52.508;13.236;2023-05-16T04:04:13;10.30;;;3.43;;
20826;SDS011;10574;52.508;13.236;2023-05-16T04:06:41;5.57;;;2.40;;
20826;SDS011;10574;52.508;13.236;2023-05-16T04:09:09;3.73;;;2.80;;
20826;SDS011;10574;52.508;13.236;2023-05-16T04:11:36;3.07;;;2.43;;
20826;SDS011;10574;52.508;13.236;2023-05-16T04:14:04;6.30;;;2.53;;
20826;SDS011;10574;52.508;13.236;2023-05-16T04:16:32;2.60;;;1.87;;
20826;SDS011;10574;52.508;13.236;2023-05-16T04:19:00;3.00;;;2.00;;
20826;SDS011;10574;52.508;13.236;2023-05-16T04:21:28;3.00;;;2.70;;
20826;SDS011;10574;52.508;13.236;2023-05-16T04:23:56;4.47;;;3.00;;
20826;SDS011;10574;52.508;13.236;2023-05-16T04:26:24;9.43;;;2.80;;
20826;SDS011;10574;52.508;13.236;2023-05-16T04:28:52;1.70;;;1.60;;
20826;SDS011;10574;52.508;13.236;2023-05-16T04:31:21;7.70;;;3.03;;
20826;SDS011;10574;52.508;13.236;2023-05-16T04:33:49;2.67;;;2.00;;
20826;SDS011;10574;52.508;13.236;2023-05-16T04:36:17;5.57;;;2.50;;
20826;SDS011;10574;52.508;13.236;2023-05-16T04:38:45;13.80;;;2.37;;
20826;SDS011;10574;52.508;13.236;2023-05-16T04:41:13;3.93;;;2.47;;
20826;SDS011;10574;52.508;13.236;2023-05-16T04:43:43;5.90;;;2.20;;
20826;SDS011;10574;52.508;13.236;2023-05-16T04:46:11;3.20;;;2.73;;
20826;SDS011;10574;52.508;13.236;2023-05-16T04:48:40;6.33;;;2.80;;
20826;SDS011;10574;52.508;13.236;2023-05-16T04:51:08;5.80;;;2.60;;
20826;SDS011;10574;52.508;13.236;2023-05-16T04:53:36;4.97;;;2.73;;
20826;SDS011;10574;52.508;13.236;2023-05-16T04:56:04;6.57;;;2.93;;
20826;SDS011;10574;52.508;13.236;2023-05-16T04:58:32;5.57;;;2.50;;
20826;SDS011;10574;52.508;13.236;2023-05-16T05:01:00;9.73;;;2.73;;
20826;SDS011;10574;52.508;13.236;2023-05-16T05:03:28;21.83;;;3.13;;
20826;SDS011;10574;52.508;13.236;2023-05-16T05:05:55;10.63;;;4.03;;
20826;SDS011;10574;52.508;13.236;2023-05-16T05:08:23;4.13;;;2.63;;
20826;SDS011;10574;52.508;13.236;2023-05-16T05:10:51;6.70;;;2.03;;
20826;SDS011;10574;52.508;13.236;2023-05-16T05:13:19;2.97;;;2.43;;
20826;SDS011;10574;52.508;13.236;2023-05-16T05:15:47;8.43;;;2.73;;
20826;SDS011;10574;52.508;13.236;2023-05-16T05:18:16;4.07;;;2.90;;
20826;SDS011;10574;52.508;13.236;2023-05-16T05:20:44;14.70;;;3.73;;
20826;SDS011;10574;52.508;13.236;2023-05-16T05:23:11;2.23;;;1.97;;
20826;SDS011;10574;52.508;13.236;2023-05-16T05:25:39;11.07;;;3.33;;
20826;SDS011;10574;52.508;13.236;2023-05-16T05:28:07;23.43;;;3.17;;
20826;SDS011;10574;52.508;13.236;2023-05-16T05:30:35;4.37;;;2.57;;
20826;SDS011;10574;52.508;13.236;2023-05-16T05:33:03;7.63;;;2.67;;
20826;SDS011;10574;52.508;13.236;2023-05-16T05:35:31;1.63;;;1.53;;
20826;SDS011;10574;52.508;13.236;2023-05-16T05:37:58;5.00;;;1.63;;
20826;SDS011;10574;52.508;13.236;2023-05-16T05:40:26;7.77;;;1.70;;
20826;SDS011;10574;52.508;13.236;2023-05-16T05:42:54;3.37;;;2.20;;
20826;SDS011;10574;52.508;13.236;2023-05-16T05:45:22;2.80;;;1.87;;
20826;SDS011;10574;52.508;13.236;2023-05-16T05:47:49;7.70;;;2.37;;
20826;SDS011;10574;52.508;13.236;2023-05-16T05:50:19;2.77;;;2.03;;
20826;SDS011;10574;52.508;13.236;2023-05-16T05:52:46;1.50;;;1.17;;
20826;SDS011;10574;52.508;13.236;2023-05-16T05:55:14;5.57;;;1.77;;
20826;SDS011;10574;52.508;13.236;2023-05-16T05:57:42;3.47;;;2.37;;
20826;SDS011;10574;52.508;13.236;2023-05-16T06:00:10;7.80;;;2.30;;
20826;SDS011;10574;52.508;13.236;2023-05-16T06:02:38;1.73;;;1.20;;
20826;SDS011;10574;52.508;13.236;2023-05-16T06:05:06;2.13;;;1.60;;
20826;SDS011;10574;52.508;13.236;2023-05-16T06:07:36;2.57;;;1.57;;
20826;SDS011;10574;52.508;13.236;2023-05-16T06:10:04;2.73;;;1.80;;
20826;SDS011;10574;52.508;13.236;2023-05-16T06:12:33;5.17;;;2.03;;
20826;SDS011;10574;52.508;13.236;2023-05-16T06:15:01;2.37;;;0.93;;
20826;SDS011;10574;52.508;13.236;2023-05-16T06:17:29;2.73;;;2.30;;
20826;SDS011;10574;52.508;13.236;2023-05-16T06:19:56;2.40;;;1.40;;
20826;SDS011;10574;52.508;13.236;2023-05-16T06:22:24;1.57;;;1.13;;
20826;SDS011;10574;52.508;13.236;2023-05-16T06:24:52;5.07;;;1.33;;
20826;SDS011;10574;52.508;13.236;2023-05-16T06:27:20;1.47;;;1.37;;
20826;SDS011;10574;52.508;13.236;2023-05-16T06:29:47;12.87;;;2.47;;
20826;SDS011;10574;52.508;13.236;2023-05-16T06:32:15;8.37;;;2.57;;
20826;SDS011;10574;52.508;13.236;2023-05-16T06:34:43;8.70;;;1.80;;
20826;SDS011;10574;52.508;13.236;2023-05-16T06:37:10;2.10;;;1.40;;
20826;SDS011;10574;52.508;13.236;2023-05-16T06:39:38;0.80;;;0.63;;
20826;SDS011;10574;52.508;13.236;2023-05-16T06:42:06;1.03;;;0.53;;
20826;SDS011;10574;52.508;13.236;2023-05-16T06:44:34;2.27;;;1.43;;
20826;SDS011;10574;52.508;13.236;2023-05-16T06:47:01;0.90;;;0.90;;
20826;SDS011;10574;52.508;13.236;2023-05-16T06:49:30;2.03;;;1.60;;
20826;SDS011;10574;52.508;13.236;2023-05-16T06:51:58;3.63;;;1.77;;
20826;SDS011;10574;52.508;13.236;2023-05-16T06:54:27;0.90;;;0.90;;
20826;SDS011;10574;52.508;13.236;2023-05-16T06:56:55;0.60;;;0.47;;
20826;SDS011;10574;52.508;13.236;2023-05-16T06:59:23;1.30;;;1.20;;
20826;SDS011;10574;52.508;13.236;2023-05-16T07:01:50;1.07;;;0.87;;
20826;SDS011;10574;52.508;13.236;2023-05-16T07:04:18;1.47;;;1.07;;
20826;SDS011;10574;52.508;13.236;2023-05-16T07:06:46;1.43;;;0.83;;
20826;SDS011;10574;52.508;13.236;2023-05-16T07:09:14;4.13;;;1.40;;
20826;SDS011;10574;52.508;13.236;2023-05-16T07:11:42;3.13;;;1.17;;
20826;SDS011;10574;52.508;13.236;2023-05-16T07:14:09;1.93;;;0.73;;
20826;SDS011;10574;52.508;13.236;2023-05-16T07:16:37;1.17;;;1.07;;
20826;SDS011;10574;52.508;13.236;2023-05-16T07:19:05;1.03;;;0.97;;
20826;SDS011;10574;52.508;13.236;2023-05-16T07:21:34;0.83;;;0.83;;
20826;SDS011;10574;52.508;13.236;2023-05-16T07:24:02;1.03;;;0.93;;
20826;SDS011;10574;52.508;13.236;2023-05-16T07:26:30;1.23;;;0.63;;
20826;SDS011;10574;52.508;13.236;2023-05-16T07:28:58;1.03;;;0.83;;
20826;SDS011;10574;52.508;13.236;2023-05-16T07:31:27;7.40;;;0.93;;
20826;SDS011;10574;52.508;13.236;2023-05-16T07:33:55;1.87;;;0.90;;
20826;SDS011;10574;52.508;13.236;2023-05-16T07:36:23;0.87;;;0.70;;
20826;SDS011;10574;52.508;13.236;2023-05-16T07:38:52;3.40;;;0.83;;
20826;SDS011;10574;52.508;13.236;2023-05-16T07:41:20;0.47;;;0.43;;
20826;SDS011;10574;52.508;13.236;2023-05-16T07:43:49;0.60;;;0.60;;
20826;SDS011;10574;52.508;13.236;2023-05-16T07:46:16;0.43;;;0.33;;
20826;SDS011;10574;52.508;13.236;2023-05-16T07:48:44;0.40;;;0.30;;
20826;SDS011;10574;52.508;13.236;2023-05-16T07:51:12;1.77;;;0.60;;
20826;SDS011;10574;52.508;13.236;2023-05-16T07:53:40;0.60;;;0.43;;
20826;SDS011;10574;52.508;13.236;2023-05-16T07:56:08;1.03;;;0.93;;
20826;SDS011;10574;52.508;13.236;2023-05-16T07:58:35;0.43;;;0.40;;
20826;SDS011;10574;52.508;13.236;2023-05-16T08:01:03;0.40;;;0.40;;
20826;SDS011;10574;52.508;13.236;2023-05-16T08:03:31;1.10;;;1.00;;
20826;SDS011;10574;52.508;13.236;2023-05-16T08:05:59;0.33;;;0.33;;
20826;SDS011;10574;52.508;13.236;2023-05-16T08:08:26;0.60;;;0.47;;
20826;SDS011;10574;52.508;13.236;2023-05-16T08:10:54;0.87;;;0.70;;
20826;SDS011;10574;52.508;13.236;2023-05-16T08:13:22;0.83;;;0.70;;
20826;SDS011;10574;52.508;13.236;2023-05-16T08:15:50;0.50;;;0.50;;
20826;SDS011;10574;52.508;13.236;2023-05-16T08:18:18;0.80;;;0.80;;
20826;SDS011;10574;52.508;13.236;2023-05-16T08:20:45;1.10;;;0.43;;
20826;SDS011;10574;52.508;13.236;2023-05-16T08:23:13;0.30;;;0.30;;
20826;SDS011;10574;52.508;13.236;2023-05-16T08:25:41;0.57;;;0.40;;
20826;SDS011;10574;52.508;13.236;2023-05-16T08:28:09;0.77;;;0.77;;
20826;SDS011;10574;52.508;13.236;2023-05-16T08:30:36;1.80;;;0.93;;
20826;SDS011;10574;52.508;13.236;2023-05-16T08:33:04;1.50;;;0.50;;
20826;SDS011;10574;52.508;13.236;2023-05-16T08:35:32;2.37;;;0.60;;
20826;SDS011;10574;52.508;13.236;2023-05-16T08:38:00;1.70;;;1.03;;
20826;SDS011;10574;52.508;13.236;2023-05-16T08:40:30;0.17;;;0.17;;
20826;SDS011;10574;52.508;13.236;2023-05-16T08:42:58;0.90;;;0.83;;
20826;SDS011;10574;52.508;13.236;2023-05-16T08:45:26;13.33;;;0.93;;
20826;SDS011;10574;52.508;13.236;2023-05-16T08:47:55;4.93;;;1.17;;
20826;SDS011;10574;52.508;13.236;2023-05-16T08:50:25;1.03;;;0.60;;
20826;SDS011;10574;52.508;13.236;2023-05-16T08:52:56;0.30;;;0.30;;
20826;SDS011;10574;52.508;13.236;2023-05-16T08:55:26;0.40;;;0.20;;
20826;SDS011;10574;52.508;13.236;2023-05-16T08:57:54;0.43;;;0.30;;
20826;SDS011;10574;52.508;13.236;2023-05-16T09:00:22;2.53;;;1.63;;
20826;SDS011;10574;52.508;13.236;2023-05-16T09:02:50;1.50;;;0.73;;
20826;SDS011;10574;52.508;13.236;2023-05-16T09:05:18;0.40;;;0.40;;
20826;SDS011;10574;52.508;13.236;2023-05-16T09:07:49;0.20;;;0.20;;
20826;SDS011;10574;52.508;13.236;2023-05-16T09:10:17;1.90;;;0.63;;
20826;SDS011;10574;52.508;13.236;2023-05-16T09:12:45;0.23;;;0.23;;
20826;SDS011;10574;52.508;13.236;2023-05-16T09:15:13;2.63;;;1.03;;
20826;SDS011;10574;52.508;13.236;2023-05-16T09:17:43;4.13;;;1.27;;
20826;SDS011;10574;52.508;13.236;2023-05-16T09:20:15;1.13;;;0.40;;
20826;SDS011;10574;52.508;13.236;2023-05-16T09:22:54;0.30;;;0.30;;
20826;SDS011;10574;52.508;13.236;2023-05-16T09:25:23;0.40;;;0.37;;
20826;SDS011;10574;52.508;13.236;2023-05-16T09:27:56;0.10;;;0.10;;
20826;SDS011;10574;52.508;13.236;2023-05-16T09:30:28;0.10;;;0.10;;
20826;SDS011;10574;52.508;13.236;2023-05-16T09:33:00;1.13;;;0.23;;
20826;SDS011;10574;52.508;13.236;2023-05-16T09:35:28;0.20;;;0.20;;
20826;SDS011;10574;52.508;13.236;2023-05-16T09:37:56;0.87;;;0.87;;
20826;SDS011;10574;52.508;13.236;2023-05-16T09:40:24;5.47;;;1.37;;
20826;SDS011;10574;52.508;13.236;2023-05-16T09:43:02;5.00;;;0.37;;
20826;SDS011;10574;52.508;13.236;2023-05-16T09:45:29;0.20;;;0.20;;
20826;SDS011;10574;52.508;13.236;2023-05-16T09:48:00;0.40;;;0.20;;
20826;SDS011;10574;52.508;13.236;2023-05-16T09:50:34;0.97;;;0.57;;
20826;SDS011;10574;52.508;13.236;2023-05-16T09:53:02;1.27;;;0.50;;
20826;SDS011;10574;52.508;13.236;2023-05-16T09:55:30;1.90;;;1.13;;
20826;SDS011;10574;52.508;13.236;2023-05-16T09:57:59;1.90;;;0.50;;
20826;SDS011;10574;52.508;13.236;2023-05-16T10:00:30;0.10;;;0.10;;
20826;SDS011;10574;52.508;13.236;2023-05-16T10:02:59;0.40;;;0.30;;
20826;SDS011;10574;52.508;13.236;2023-05-16T10:05:29;8.70;;;0.93;;
20826;SDS011;10574;52.508;13.236;2023-05-16T10:07:57;0.83;;;0.47;;
20826;SDS011;10574;52.508;13.236;2023-05-16T10:10:27;0.00;;;0.00;;
20826;SDS011;10574;52.508;13.236;2023-05-16T10:12:55;0.40;;;0.40;;
20826;SDS011;10574;52.508;13.236;2023-05-16T10:15:26;0.17;;;0.17;;
20826;SDS011;10574;52.508;13.236;2023-05-16T10:17:54;2.83;;;1.40;;
20826;SDS011;10574;52.508;13.236;2023-05-16T10:20:28;3.00;;;0.40;;
20826;SDS011;10574;52.508;13.236;2023-05-16T10:22:56;0.17;;;0.17;;
20826;SDS011;10574;52.508;13.236;2023-05-16T10:25:28;4.93;;;0.90;;
20826;SDS011;10574;52.508;13.236;2023-05-16T10:27:55;4.03;;;0.70;;
20826;SDS011;10574;52.508;13.236;2023-05-16T10:30:24;0.57;;;0.30;;
20826;SDS011;10574;52.508;13.236;2023-05-16T10:32:52;1.03;;;0.50;;
20826;SDS011;10574;52.508;13.236;2023-05-16T10:35:21;2.23;;;0.70;;
20826;SDS011;10574;52.508;13.236;2023-05-16T10:37:49;1.20;;;0.53;;
20826;SDS011;10574;52.508;13.236;2023-05-16T10:40:18;1.67;;;0.83;;
20826;SDS011;10574;52.508;13.236;2023-05-16T10:43:00;1.00;;;0.40;;
20826;SDS011;10574;52.508;13.236;2023-05-16T10:45:29;0.77;;;0.40;;
20826;SDS011;10574;52.508;13.236;2023-05-16T10:47:57;0.27;;;0.23;;
20826;SDS011;10574;52.508;13.236;2023-05-16T10:50:38;1.30;;;0.77;;
20826;SDS011;10574;52.508;13.236;2023-05-16T10:53:13;12.87;;;1.43;;
20826;SDS011;10574;52.508;13.236;2023-05-16T10:55:49;0.10;;;0.10;;
20826;SDS011;10574;52.508;13.236;2023-05-16T11:01:19;0.53;;;0.53;;
20826;SDS011;10574;52.508;13.236;2023-05-16T11:06:29;0.10;;;0.10;;
20826;SDS011;10574;52.508;13.236;2023-05-16T11:14:28;2.00;;;0.50;;
20826;SDS011;10574;52.508;13.236;2023-05-16T11:17:09;2.13;;;0.53;;
20826;SDS011;10574;52.508;13.236;2023-05-16T11:19:39;0.73;;;0.40;;
20826;SDS011;10574;52.508;13.236;2023-05-16T11:27:36;0.10;;;0.10;;
20826;SDS011;10574;52.508;13.236;2023-05-16T11:30:12;0.27;;;0.27;;
20826;SDS011;10574;52.508;13.236;2023-05-16T11:32:42;3.93;;;1.03;;
20826;SDS011;10574;52.508;13.236;2023-05-16T11:35:12;0.43;;;0.43;;
20826;SDS011;10574;52.508;13.236;2023-05-16T11:37:42;0.20;;;0.20;;
20826;SDS011;10574;52.508;13.236;2023-05-16T11:40:12;6.57;;;1.33;;
20826;SDS011;10574;52.508;13.236;2023-05-16T11:42:43;5.53;;;1.07;;
20826;SDS011;10574;52.508;13.236;2023-05-16T11:45:19;0.17;;;0.17;;
20826;SDS011;10574;52.508;13.236;2023-05-16T11:47:51;9.03;;;0.73;;
20826;SDS011;10574;52.508;13.236;2023-05-16T11:50:21;0.20;;;0.20;;
20826;SDS011;10574;52.508;13.236;2023-05-16T11:52:52;4.80;;;1.20;;
20826;SDS011;10574;52.508;13.236;2023-05-16T11:55:23;0.40;;;0.40;;
20826;SDS011;10574;52.508;13.236;2023-05-16T11:57:52;1.30;;;0.30;;
20826;SDS011;10574;52.508;13.236;2023-05-16T12:00:23;5.00;;;0.73;;
20826;SDS011;10574;52.508;13.236;2023-05-16T12:02:53;0.47;;;0.33;;
20826;SDS011;10574;52.508;13.236;2023-05-16T12:05:22;0.87;;;0.87;;
20826;SDS011;10574;52.508;13.236;2023-05-16T12:07:51;4.57;;;0.73;;
20826;SDS011;10574;52.508;13.236;2023-05-16T12:10:19;4.83;;;0.47;;
20826;SDS011;10574;52.508;13.236;2023-05-16T12:12:48;0.93;;;0.10;;
20826;SDS011;10574;52.508;13.236;2023-05-16T12:15:18;17.83;;;0.63;;
20826;SDS011;10574;52.508;13.236;2023-05-16T12:17:46;2.30;;;0.40;;
20826;SDS011;10574;52.508;13.236;2023-05-16T12:20:15;0.33;;;0.33;;
20826;SDS011;10574;52.508;13.236;2023-05-16T12:22:43;7.10;;;0.90;;
20826;SDS011;10574;52.508;13.236;2023-05-16T12:25:20;0.00;;;0.00;;
20826;SDS011;10574;52.508;13.236;2023-05-16T12:27:48;0.43;;;0.20;;
20826;SDS011;10574;52.508;13.236;2023-05-16T12:30:16;0.00;;;0.00;;
20826;SDS011;10574;52.508;13.236;2023-05-16T12:32:44;8.20;;;1.13;;
20826;SDS011;10574;52.508;13.236;2023-05-16T12:35:12;1.43;;;0.57;;
20826;SDS011;10574;52.508;13.236;2023-05-16T12:37:42;0.20;;;0.20;;
20826;SDS011;10574;52.508;13.236;2023-05-16T12:40:09;0.00;;;0.00;;
20826;SDS011;10574;52.508;13.236;2023-05-16T12:42:38;0.77;;;0.77;;
20826;SDS011;10574;52.508;13.236;2023-05-16T12:45:13;0.27;;;0.10;;
20826;SDS011;10574;52.508;13.236;2023-05-16T12:47:41;1.23;;;0.63;;
20826;SDS011;10574;52.508;13.236;2023-05-16T12:50:09;0.23;;;0.10;;
20826;SDS011;10574;52.508;13.236;2023-05-16T12:52:46;0.97;;;0.30;;
20826;SDS011;10574;52.508;13.236;2023-05-16T12:55:18;0.23;;;0.20;;
20826;SDS011;10574;52.508;13.236;2023-05-16T12:57:55;4.90;;;0.47;;
20826;SDS011;10574;52.508;13.236;2023-05-16T13:00:37;0.20;;;0.20;;
20826;SDS011;10574;52.508;13.236;2023-05-16T13:03:05;0.30;;;0.30;;
20826;SDS011;10574;52.508;13.236;2023-05-16T13:05:33;0.63;;;0.37;;
20826;SDS011;10574;52.508;13.236;2023-05-16T13:08:01;1.50;;;0.53;;
20826;SDS011;10574;52.508;13.236;2023-05-16T13:10:30;4.73;;;1.03;;
20826;SDS011;10574;52.508;13.236;2023-05-16T13:12:59;0.20;;;0.20;;
20826;SDS011;10574;52.508;13.236;2023-05-16T13:15:27;8.80;;;1.20;;
20826;SDS011;10574;52.508;13.236;2023-05-16T13:17:55;1.40;;;0.93;;
20826;SDS011;10574;52.508;13.236;2023-05-16T13:20:22;1.17;;;0.10;;
20826;SDS011;10574;52.508;13.236;2023-05-16T13:22:50;3.73;;;1.53;;
20826;SDS011;10574;52.508;13.236;2023-05-16T13:25:18;8.83;;;1.23;;
20826;SDS011;10574;52.508;13.236;2023-05-16T13:27:46;0.40;;;0.37;;
20826;SDS011;10574;52.508;13.236;2023-05-16T13:30:14;0.20;;;0.20;;
20826;SDS011;10574;52.508;13.236;2023-05-16T13:32:42;0.00;;;0.00;;
20826;SDS011;10574;52.508;13.236;2023-05-16T13:35:10;0.20;;;0.20;;
20826;SDS011;10574;52.508;13.236;2023-05-16T13:37:38;0.20;;;0.20;;
20826;SDS011;10574;52.508;13.236;2023-05-16T13:40:06;2.83;;;1.03;;
20826;SDS011;10574;52.508;13.236;2023-05-16T13:42:35;2.47;;;0.80;;
20826;SDS011;10574;52.508;13.236;2023-05-16T13:45:03;0.23;;;0.23;;
20826;SDS011;10574;52.508;13.236;2023-05-16T13:47:32;1.50;;;1.03;;
20826;SDS011;10574;52.508;13.236;2023-05-16T13:50:00;11.40;;;1.30;;
20826;SDS011;10574;52.508;13.236;2023-05-16T13:52:30;0.17;;;0.17;;
20826;SDS011;10574;52.508;13.236;2023-05-16T13:54:57;1.50;;;0.40;;
20826;SDS011;10574;52.508;13.236;2023-05-16T13:57:25;0.77;;;0.40;;
20826;SDS011;10574;52.508;13.236;2023-05-16T13:59:53;0.43;;;0.30;;
20826;SDS011;10574;52.508;13.236;2023-05-16T14:02:22;0.03;;;0.03;;
20826;SDS011;10574;52.508;13.236;2023-05-16T14:04:51;0.23;;;0.23;;
20826;SDS011;10574;52.508;13.236;2023-05-16T14:07:19;1.40;;;0.50;;
20826;SDS011;10574;52.508;13.236;2023-05-16T14:09:47;0.50;;;0.27;;
20826;SDS011;10574;52.508;13.236;2023-05-16T14:12:14;0.10;;;0.10;;
20826;SDS011;10574;52.508;13.236;2023-05-16T14:14:42;0.50;;;0.47;;
20826;SDS011;10574;52.508;13.236;2023-05-16T14:17:10;0.00;;;0.00;;
20826;SDS011;10574;52.508;13.236;2023-05-16T14:19:38;0.07;;;0.07;;
20826;SDS011;10574;52.508;13.236;2023-05-16T14:22:06;2.20;;;0.47;;
20826;SDS011;10574;52.508;13.236;2023-05-16T14:24:33;0.50;;;0.30;;
20826;SDS011;10574;52.508;13.236;2023-05-16T14:27:01;0.10;;;0.10;;
20826;SDS011;10574;52.508;13.236;2023-05-16T14:29:29;0.07;;;0.07;;
20826;SDS011;10574;52.508;13.236;2023-05-16T14:31:57;0.27;;;0.27;;
20826;SDS011;10574;52.508;13.236;2023-05-16T14:34:25;1.00;;;0.20;;
20826;SDS011;10574;52.508;13.236;2023-05-16T14:36:53;11.23;;;0.93;;
20826;SDS011;10574;52.508;13.236;2023-05-16T14:39:20;12.63;;;0.77;;
20826;SDS011;10574;52.508;13.236;2023-05-16T14:41:48;0.20;;;0.10;;
20826;SDS011;10574;52.508;13.236;2023-05-16T14:44:16;0.93;;;0.60;;
20826;SDS011;10574;52.508;13.236;2023-05-16T14:46:45;0.00;;;0.00;;
20826;SDS011;10574;52.508;13.236;2023-05-16T14:49:13;0.07;;;0.07;;
20826;SDS011;10574;52.508;13.236;2023-05-16T14:51:40;0.87;;;0.47;;
20826;SDS011;10574;52.508;13.236;2023-05-16T14:54:10;0.53;;;0.23;;
20826;SDS011;10574;52.508;13.236;2023-05-16T14:56:37;1.80;;;1.00;;
20826;SDS011;10574;52.508;13.236;2023-05-16T14:59:05;0.27;;;0.13;;
20826;SDS011;10574;52.508;13.236;2023-05-16T15:01:33;1.20;;;0.50;;
20826;SDS011;10574;52.508;13.236;2023-05-16T15:04:01;0.10;;;0.10;;
20826;SDS011;10574;52.508;13.236;2023-05-16T15:06:28;2.33;;;0.80;;
20826;SDS011;10574;52.508;13.236;2023-05-16T15:08:56;0.63;;;0.17;;
20826;SDS011;10574;52.508;13.236;2023-05-16T15:11:24;0.20;;;0.20;;
20826;SDS011;10574;52.508;13.236;2023-05-16T15:13:51;0.93;;;0.17;;
20826;SDS011;10574;52.508;13.236;2023-05-16T15:16:21;0.60;;;0.27;;
20826;SDS011;10574;52.508;13.236;2023-05-16T15:18:48;0.20;;;0.20;;